Love Boat — OT3861 — position and weather

sailwx.info

Track history (hours):
 
Tides and Currents Weather Stations Pressure Air Temp Water Temp Dewpoint Dewpoint Depression Visibility Wind Speed Wind Dir Waves Ship Positions

Love Boat

Last reported at 2014-Aug-20 06:31 UTC. Time now 2014-Aug-22 05:57 UTC.
Position N 47°39' E 007°32'.

Length 110 m; draft 3 m.

Type: Ship. MMSI: 205386190.

Date/timePositionNaut miles runAvg speedWind from/ knotsBaromVisibWave heightAir tempDewpointWater temp
2014-Aug-20 06:31N 47°39' E 007°32'5 4.8
2014-Aug-20 05:33N 47°35' E 007°36'0 0.0
2014-Aug-20 04:33N 47°35' E 007°36'0 0.0
2014-Aug-20 03:33N 47°35' E 007°36'0 0.0
2014-Aug-20 02:32N 47°35' E 007°36'0 0.0
2014-Aug-20 01:33N 47°35' E 007°36'0 0.0
2014-Aug-20 00:33N 47°35' E 007°36'0 0.0
2014-Aug-19 23:33N 47°35' E 007°36'0 0.0
2014-Aug-19 22:33N 47°35' E 007°36'0 0.0
2014-Aug-19 21:33N 47°35' E 007°36'0 0.0
2014-Aug-19 20:33N 47°35' E 007°36'0 0.0
2014-Aug-19 19:33N 47°35' E 007°36'0 0.0
2014-Aug-19 18:33N 47°35' E 007°36'0 0.0
2014-Aug-19 17:33N 47°35' E 007°36'0 0.0
2014-Aug-19 16:33N 47°35' E 007°36'2 1.7
2014-Aug-19 15:33N 47°34' E 007°35'3 3.2
2014-Aug-19 14:33N 47°32' E 007°40'0 0.0
2014-Aug-19 13:33N 47°32' E 007°40'0 0.0
2014-Aug-19 12:33N 47°32' E 007°40'0 0.0
2014-Aug-19 11:33N 47°32' E 007°40'69 2.1
2014-Aug-18 03:15N 48°41' E 007°54'0 0.6
2014-Aug-18 02:33N 48°41' E 007°54'0 0.0
2014-Aug-18 01:33N 48°41' E 007°54'0 0.0
2014-Aug-18 00:33N 48°41' E 007°54'14 2.3
2014-Aug-17 18:28N 48°52' E 008°07'3 3.8
2014-Aug-17 17:33N 48°55' E 008°10'4 3.6
2014-Aug-17 16:33N 48°58' E 008°14'4 4.0
2014-Aug-17 15:33N 49°01' E 008°18'4 4.0
2014-Aug-17 14:33N 49°04' E 008°20'4 4.0
2014-Aug-17 13:33N 49°08' E 008°22'4 4.0
2014-Aug-17 12:33N 49°12' E 008°23'4 3.9
2014-Aug-17 11:33N 49°16' E 008°26'3 3.3
2014-Aug-17 10:33N 49°19' E 008°28'111 2.7
2014-Aug-15 18:07N 50°54' E 006°59'16 3.2
2014-Aug-15 13:10N 51°09' E 006°48'2 3.9
2014-Aug-15 12:33N 51°11' E 006°48'4 3.6
2014-Aug-15 11:33N 51°13' E 006°43'2 2.0
2014-Aug-15 10:34N 51°15' E 006°45'53 3.5
2014-Aug-14 19:15N 51°53' E 005°45'4 6.0
2014-Aug-14 18:33N 51°54' E 005°38'6 5.9
2014-Aug-14 17:33N 51°53' E 005°28'6 5.8
2014-Aug-14 16:33N 51°49' E 005°22'5 5.1
2014-Aug-14 15:33N 51°49' E 005°14'6 5.8
2014-Aug-14 14:33N 51°50' E 005°05'7 6.6
2014-Aug-14 13:33N 51°49' E 004°54'7 7.1
2014-Aug-14 12:33N 51°49' E 004°43'7 6.5
2014-Aug-14 11:32N 51°54' E 004°35'6 6.0
2014-Aug-14 10:29N 51°55' E 004°25'0 0.1
2014-Aug-14 09:33N 51°55' E 004°25'0 0.0
2014-Aug-14 08:31N 51°55' E 004°25'0 0.0
2014-Aug-14 07:33N 51°55' E 004°25'0 0.0
2014-Aug-14 06:30N 51°55' E 004°25'0 0.0
2014-Aug-14 05:32N 51°55' E 004°25'0 0.0
2014-Aug-14 03:27N 51°55' E 004°25'0 0.0
2014-Aug-14 02:34N 51°55' E 004°25'0 0.0
2014-Aug-14 01:32N 51°55' E 004°25'0 0.0
2014-Aug-14 00:27N 51°55' E 004°25'0 0.0
2014-Aug-13 23:31N 51°55' E 004°25'0 0.0
2014-Aug-13 22:33N 51°55' E 004°25'0 0.0
2014-Aug-13 21:33N 51°55' E 004°25'0 0.0
2014-Aug-13 20:29N 51°55' E 004°25'2 2.3
2014-Aug-13 19:33N 51°54' E 004°28'6 6.1
2014-Aug-13 18:33N 51°53' E 004°38'5 5.3
2014-Aug-13 17:33N 51°47' E 004°38'2 2.0
2014-Aug-13 16:33N 51°45' E 004°38'0 0.0
2014-Aug-13 15:33N 51°45' E 004°38'0 0.0
2014-Aug-13 14:33N 51°45' E 004°38'0 0.0
2014-Aug-13 13:33N 51°45' E 004°38'0 0.0
2014-Aug-13 12:33N 51°45' E 004°38'0 0.0
2014-Aug-13 11:33N 51°45' E 004°38'5 4.8
2014-Aug-13 10:34N 51°42' E 004°32'13 5.8
2014-Aug-13 08:22N 51°38' E 004°13'6 6.7
2014-Aug-13 07:28N 51°32' E 004°14'5 5.1
2014-Aug-13 06:32N 51°27' E 004°14'7 5.6
2014-Aug-13 05:22N 51°21' E 004°18'7 8.1
2014-Aug-13 04:34N 51°15' E 004°22'1 1.0
2014-Aug-13 03:34N 51°15' E 004°24'0 0.0
2014-Aug-13 02:34N 51°15' E 004°24'0 0.0
2014-Aug-13 01:34N 51°15' E 004°24'0 0.0
2014-Aug-13 00:34N 51°15' E 004°24'0 0.0
2014-Aug-12 23:34N 51°15' E 004°24'0 0.0
2014-Aug-12 22:34N 51°15' E 004°24'0 0.0
2014-Aug-12 21:34N 51°15' E 004°24'0 0.0
2014-Aug-12 20:34N 51°15' E 004°24'0 0.0
2014-Aug-12 19:34N 51°15' E 004°24'0 0.0
2014-Aug-12 18:34N 51°15' E 004°24'0 0.0
2014-Aug-12 17:34N 51°15' E 004°24'0 0.0
2014-Aug-12 16:34N 51°15' E 004°24'0 0.0
2014-Aug-12 15:34N 51°15' E 004°24'0 0.0
2014-Aug-12 14:34N 51°15' E 004°24'3 3.3
2014-Aug-12 13:33N 51°14' E 004°29'1 0.7
2014-Aug-12 12:33N 51°14' E 004°30'0 0.0
2014-Aug-12 11:33N 51°14' E 004°30'0 0.0
2014-Aug-12 10:33N 51°14' E 004°30'0 0.0
2014-Aug-12 09:33N 51°14' E 004°30'0 0.0
2014-Aug-12 08:33N 51°14' E 004°30'0 0.0
2014-Aug-12 07:33N 51°14' E 004°30'0 0.0
2014-Aug-12 06:33N 51°14' E 004°30'0 0.0
2014-Aug-12 05:34N 51°14' E 004°30'0 0.0
2014-Aug-12 04:33N 51°14' E 004°30'0 0.0
2014-Aug-12 03:34N 51°14' E 004°30'0 0.0
2014-Aug-12 02:33N 51°14' E 004°30'0 0.0
2014-Aug-12 01:34N 51°14' E 004°30'0 0.0
2014-Aug-12 00:34N 51°14' E 004°30'0 0.0
2014-Aug-11 23:34N 51°14' E 004°30'0 0.0
2014-Aug-11 22:34N 51°14' E 004°30'0 0.0
2014-Aug-11 21:34N 51°14' E 004°30'0 0.0
2014-Aug-11 20:34N 51°14' E 004°30'0 0.0
2014-Aug-11 19:33N 51°14' E 004°30'0 0.0
2014-Aug-11 18:34N 51°14' E 004°30'0 0.0
2014-Aug-11 17:33N 51°14' E 004°30'0 0.0
2014-Aug-11 16:34N 51°14' E 004°30'0 0.0
2014-Aug-11 15:34N 51°14' E 004°30'0 0.0
2014-Aug-11 14:33N 51°14' E 004°30'0 0.0
2014-Aug-11 13:34N 51°14' E 004°30'0 0.0
2014-Aug-11 12:34N 51°14' E 004°30'0 0.0
2014-Aug-11 11:34N 51°14' E 004°30'0 0.0
2014-Aug-11 10:34N 51°14' E 004°30'0 0.0
2014-Aug-11 09:33N 51°14' E 004°30'0 0.0
2014-Aug-11 08:33N 51°14' E 004°30'0 0.0
2014-Aug-11 07:33N 51°14' E 004°30'0 0.0
2014-Aug-11 06:33N 51°14' E 004°30'0 0.0
2014-Aug-11 05:33N 51°14' E 004°30'0 0.0
2014-Aug-11 04:33N 51°14' E 004°30'0 0.0
2014-Aug-11 03:33N 51°14' E 004°30'0 0.0
2014-Aug-11 02:33N 51°14' E 004°30'0 0.0
2014-Aug-11 01:34N 51°14' E 004°30'0 0.0
2014-Aug-11 00:33N 51°14' E 004°30'0 0.0
2014-Aug-10 23:34N 51°14' E 004°30'4 3.6
2014-Aug-10 22:34N 51°15' E 004°24'7 6.9
2014-Aug-10 21:33N 51°20' E 004°18'7 6.4
2014-Aug-10 20:28N 51°27' E 004°14'5 5.3
2014-Aug-10 19:33N 51°32' E 004°14'6 6.1
2014-Aug-10 18:31N 51°38' E 004°14'7 6.7
2014-Aug-10 17:30N 51°41' E 004°24'5 4.1
2014-Aug-10 16:21N 51°42' E 004°32'6 7.1
2014-Aug-10 15:33N 51°43' E 004°40'7 6.5
2014-Aug-10 14:33N 51°48' E 004°48'7 6.6
2014-Aug-10 13:33N 51°49' E 004°58'7 7.4
2014-Aug-10 12:33N 51°49' E 005°10'7 7.3
2014-Aug-10 11:33N 51°48' E 005°22'7 7.4
2014-Aug-10 10:33N 51°53' E 005°31'8 8.0
2014-Aug-10 09:32N 51°53' E 005°44'  
Track history (hours):
 
Tides and Currents Weather Stations Pressure Air Temp Water Temp Dewpoint Dewpoint Depression Visibility Wind Speed Wind Dir Waves Ship Positions

Love Boat

Last reported at 2014-Aug-20 06:31 UTC. Time now 2014-Aug-22 05:57 UTC.
Position N 47°39' E 007°32'.

Length 110 m; draft 3 m.

Type: Ship. MMSI: 205386190.

Date/timePositionNaut miles runAvg speedWind from/ knotsBaromVisibWave heightAir tempDewpointWater temp
2014-Aug-20 06:31N 47°39' E 007°32'5 4.8
2014-Aug-20 05:33N 47°35' E 007°36'0 0.0
2014-Aug-20 04:33N 47°35' E 007°36'0 0.0
2014-Aug-20 03:33N 47°35' E 007°36'0 0.0
2014-Aug-20 02:32N 47°35' E 007°36'0 0.0
2014-Aug-20 01:33N 47°35' E 007°36'0 0.0
2014-Aug-20 00:33N 47°35' E 007°36'0 0.0
2014-Aug-19 23:33N 47°35' E 007°36'0 0.0
2014-Aug-19 22:33N 47°35' E 007°36'0 0.0
2014-Aug-19 21:33N 47°35' E 007°36'0 0.0
2014-Aug-19 20:33N 47°35' E 007°36'0 0.0
2014-Aug-19 19:33N 47°35' E 007°36'0 0.0
2014-Aug-19 18:33N 47°35' E 007°36'0 0.0
2014-Aug-19 17:33N 47°35' E 007°36'0 0.0
2014-Aug-19 16:33N 47°35' E 007°36'2 1.7
2014-Aug-19 15:33N 47°34' E 007°35'3 3.2
2014-Aug-19 14:33N 47°32' E 007°40'0 0.0
2014-Aug-19 13:33N 47°32' E 007°40'0 0.0
2014-Aug-19 12:33N 47°32' E 007°40'0 0.0
2014-Aug-19 11:33N 47°32' E 007°40'69 2.1
2014-Aug-18 03:15N 48°41' E 007°54'0 0.6
2014-Aug-18 02:33N 48°41' E 007°54'0 0.0
2014-Aug-18 01:33N 48°41' E 007°54'0 0.0
2014-Aug-18 00:33N 48°41' E 007°54'14 2.3
2014-Aug-17 18:28N 48°52' E 008°07'3 3.8
2014-Aug-17 17:33N 48°55' E 008°10'4 3.6
2014-Aug-17 16:33N 48°58' E 008°14'4 4.0
2014-Aug-17 15:33N 49°01' E 008°18'4 4.0
2014-Aug-17 14:33N 49°04' E 008°20'4 4.0
2014-Aug-17 13:33N 49°08' E 008°22'4 4.0
2014-Aug-17 12:33N 49°12' E 008°23'4 3.9
2014-Aug-17 11:33N 49°16' E 008°26'3 3.3
2014-Aug-17 10:33N 49°19' E 008°28'111 2.7
2014-Aug-15 18:07N 50°54' E 006°59'16 3.2
2014-Aug-15 13:10N 51°09' E 006°48'2 3.9
2014-Aug-15 12:33N 51°11' E 006°48'4 3.6
2014-Aug-15 11:33N 51°13' E 006°43'2 2.0
2014-Aug-15 10:34N 51°15' E 006°45'53 3.5
2014-Aug-14 19:15N 51°53' E 005°45'4 6.0
2014-Aug-14 18:33N 51°54' E 005°38'6 5.9
2014-Aug-14 17:33N 51°53' E 005°28'6 5.8
2014-Aug-14 16:33N 51°49' E 005°22'5 5.1
2014-Aug-14 15:33N 51°49' E 005°14'6 5.8
2014-Aug-14 14:33N 51°50' E 005°05'7 6.6
2014-Aug-14 13:33N 51°49' E 004°54'7 7.1
2014-Aug-14 12:33N 51°49' E 004°43'7 6.5
2014-Aug-14 11:32N 51°54' E 004°35'6 6.0
2014-Aug-14 10:29N 51°55' E 004°25'0 0.1
2014-Aug-14 09:33N 51°55' E 004°25'0 0.0
2014-Aug-14 08:31N 51°55' E 004°25'0 0.0
2014-Aug-14 07:33N 51°55' E 004°25'0 0.0
2014-Aug-14 06:30N 51°55' E 004°25'0 0.0
2014-Aug-14 05:32N 51°55' E 004°25'0 0.0
2014-Aug-14 03:27N 51°55' E 004°25'0 0.0
2014-Aug-14 02:34N 51°55' E 004°25'0 0.0
2014-Aug-14 01:32N 51°55' E 004°25'0 0.0
2014-Aug-14 00:27N 51°55' E 004°25'0 0.0
2014-Aug-13 23:31N 51°55' E 004°25'0 0.0
2014-Aug-13 22:33N 51°55' E 004°25'0 0.0
2014-Aug-13 21:33N 51°55' E 004°25'0 0.0
2014-Aug-13 20:29N 51°55' E 004°25'2 2.3
2014-Aug-13 19:33N 51°54' E 004°28'6 6.1
2014-Aug-13 18:33N 51°53' E 004°38'5 5.3
2014-Aug-13 17:33N 51°47' E 004°38'2 2.0
2014-Aug-13 16:33N 51°45' E 004°38'0 0.0
2014-Aug-13 15:33N 51°45' E 004°38'0 0.0
2014-Aug-13 14:33N 51°45' E 004°38'0 0.0
2014-Aug-13 13:33N 51°45' E 004°38'0 0.0
2014-Aug-13 12:33N 51°45' E 004°38'0 0.0
2014-Aug-13 11:33N 51°45' E 004°38'5 4.8
2014-Aug-13 10:34N 51°42' E 004°32'13 5.8
2014-Aug-13 08:22N 51°38' E 004°13'6 6.7
2014-Aug-13 07:28N 51°32' E 004°14'5 5.1
2014-Aug-13 06:32N 51°27' E 004°14'7 5.6
2014-Aug-13 05:22N 51°21' E 004°18'7 8.1
2014-Aug-13 04:34N 51°15' E 004°22'1 1.0
2014-Aug-13 03:34N 51°15' E 004°24'0 0.0
2014-Aug-13 02:34N 51°15' E 004°24'0 0.0
2014-Aug-13 01:34N 51°15' E 004°24'0 0.0
2014-Aug-13 00:34N 51°15' E 004°24'0 0.0
2014-Aug-12 23:34N 51°15' E 004°24'0 0.0
2014-Aug-12 22:34N 51°15' E 004°24'0 0.0
2014-Aug-12 21:34N 51°15' E 004°24'0 0.0
2014-Aug-12 20:34N 51°15' E 004°24'0 0.0
2014-Aug-12 19:34N 51°15' E 004°24'0 0.0
2014-Aug-12 18:34N 51°15' E 004°24'0 0.0
2014-Aug-12 17:34N 51°15' E 004°24'0 0.0
2014-Aug-12 16:34N 51°15' E 004°24'0 0.0
2014-Aug-12 15:34N 51°15' E 004°24'0 0.0
2014-Aug-12 14:34N 51°15' E 004°24'3 3.3
2014-Aug-12 13:33N 51°14' E 004°29'1 0.7
2014-Aug-12 12:33N 51°14' E 004°30'0 0.0
2014-Aug-12 11:33N 51°14' E 004°30'0 0.0
2014-Aug-12 10:33N 51°14' E 004°30'0 0.0
2014-Aug-12 09:33N 51°14' E 004°30'0 0.0
2014-Aug-12 08:33N 51°14' E 004°30'0 0.0
2014-Aug-12 07:33N 51°14' E 004°30'0 0.0
2014-Aug-12 06:33N 51°14' E 004°30'0 0.0
2014-Aug-12 05:34N 51°14' E 004°30'0 0.0
2014-Aug-12 04:33N 51°14' E 004°30'0 0.0
2014-Aug-12 03:34N 51°14' E 004°30'0 0.0
2014-Aug-12 02:33N 51°14' E 004°30'0 0.0
2014-Aug-12 01:34N 51°14' E 004°30'0 0.0
2014-Aug-12 00:34N 51°14' E 004°30'0 0.0
2014-Aug-11 23:34N 51°14' E 004°30'0 0.0
2014-Aug-11 22:34N 51°14' E 004°30'0 0.0
2014-Aug-11 21:34N 51°14' E 004°30'0 0.0
2014-Aug-11 20:34N 51°14' E 004°30'0 0.0
2014-Aug-11 19:33N 51°14' E 004°30'0 0.0
2014-Aug-11 18:34N 51°14' E 004°30'0 0.0
2014-Aug-11 17:33N 51°14' E 004°30'0 0.0
2014-Aug-11 16:34N 51°14' E 004°30'0 0.0
2014-Aug-11 15:34N 51°14' E 004°30'0 0.0
2014-Aug-11 14:33N 51°14' E 004°30'0 0.0
2014-Aug-11 13:34N 51°14' E 004°30'0 0.0
2014-Aug-11 12:34N 51°14' E 004°30'0 0.0
2014-Aug-11 11:34N 51°14' E 004°30'0 0.0
2014-Aug-11 10:34N 51°14' E 004°30'0 0.0
2014-Aug-11 09:33N 51°14' E 004°30'0 0.0
2014-Aug-11 08:33N 51°14' E 004°30'0 0.0
2014-Aug-11 07:33N 51°14' E 004°30'0 0.0
2014-Aug-11 06:33N 51°14' E 004°30'0 0.0
2014-Aug-11 05:33N 51°14' E 004°30'0 0.0
2014-Aug-11 04:33N 51°14' E 004°30'0 0.0
2014-Aug-11 03:33N 51°14' E 004°30'0 0.0
2014-Aug-11 02:33N 51°14' E 004°30'0 0.0
2014-Aug-11 01:34N 51°14' E 004°30'0 0.0
2014-Aug-11 00:33N 51°14' E 004°30'0 0.0
2014-Aug-10 23:34N 51°14' E 004°30'4 3.6
2014-Aug-10 22:34N 51°15' E 004°24'7 6.9
2014-Aug-10 21:33N 51°20' E 004°18'7 6.4
2014-Aug-10 20:28N 51°27' E 004°14'5 5.3
2014-Aug-10 19:33N 51°32' E 004°14'6 6.1
2014-Aug-10 18:31N 51°38' E 004°14'7 6.7
2014-Aug-10 17:30N 51°41' E 004°24'5 4.1
2014-Aug-10 16:21N 51°42' E 004°32'6 7.1
2014-Aug-10 15:33N 51°43' E 004°40'7 6.5
2014-Aug-10 14:33N 51°48' E 004°48'7 6.6
2014-Aug-10 13:33N 51°49' E 004°58'7 7.4
2014-Aug-10 12:33N 51°49' E 005°10'7 7.3
2014-Aug-10 11:33N 51°48' E 005°22'7 7.4
2014-Aug-10 10:33N 51°53' E 005°31'8 8.0
2014-Aug-10 09:32N 51°53' E 005°44'  

Dump ship's entire track history